sensor_id;sensor_type;location;lat;lon;timestamp;P1;durP1;ratioP1;P2;durP2;ratioP2
61458;SDS011;47324;48.760;9.156;2022-08-18T00:02:25;5.97;;;4.82;;
61458;SDS011;47324;48.760;9.156;2022-08-18T00:04:53;7.00;;;4.60;;
61458;SDS011;47324;48.760;9.156;2022-08-18T00:07:23;7.05;;;4.57;;
61458;SDS011;47324;48.760;9.156;2022-08-18T00:09:54;5.85;;;4.75;;
61458;SDS011;47324;48.760;9.156;2022-08-18T00:12:24;4.90;;;4.28;;
61458;SDS011;47324;48.760;9.156;2022-08-18T00:14:53;5.38;;;4.07;;
61458;SDS011;47324;48.760;9.156;2022-08-18T00:17:20;5.63;;;4.47;;
61458;SDS011;47324;48.760;9.156;2022-08-18T00:19:46;6.35;;;4.35;;
61458;SDS011;47324;48.760;9.156;2022-08-18T00:22:13;5.68;;;4.47;;
61458;SDS011;47324;48.760;9.156;2022-08-18T00:24:41;6.15;;;5.07;;
61458;SDS011;47324;48.760;9.156;2022-08-18T00:27:08;5.85;;;4.55;;
61458;SDS011;47324;48.760;9.156;2022-08-18T00:29:35;7.47;;;5.25;;
61458;SDS011;47324;48.760;9.156;2022-08-18T00:32:10;6.63;;;5.32;;
61458;SDS011;47324;48.760;9.156;2022-08-18T00:34:38;6.05;;;5.03;;
61458;SDS011;47324;48.760;9.156;2022-08-18T00:37:04;7.63;;;4.55;;
61458;SDS011;47324;48.760;9.156;2022-08-18T00:39:30;5.88;;;4.13;;
61458;SDS011;47324;48.760;9.156;2022-08-18T00:41:58;6.65;;;4.72;;
61458;SDS011;47324;48.760;9.156;2022-08-18T00:44:25;5.45;;;4.38;;
61458;SDS011;47324;48.760;9.156;2022-08-18T00:46:51;5.07;;;3.97;;
61458;SDS011;47324;48.760;9.156;2022-08-18T00:49:17;5.75;;;4.28;;
61458;SDS011;47324;48.760;9.156;2022-08-18T00:51:46;5.50;;;4.38;;
61458;SDS011;47324;48.760;9.156;2022-08-18T00:54:15;7.22;;;4.18;;
61458;SDS011;47324;48.760;9.156;2022-08-18T00:56:42;5.43;;;4.22;;
61458;SDS011;47324;48.760;9.156;2022-08-18T00:59:21;6.18;;;4.85;;
61458;SDS011;47324;48.760;9.156;2022-08-18T01:01:51;5.72;;;4.57;;
61458;SDS011;47324;48.760;9.156;2022-08-18T01:04:20;5.88;;;4.35;;
61458;SDS011;47324;48.760;9.156;2022-08-18T01:06:51;6.20;;;4.68;;
61458;SDS011;47324;48.760;9.156;2022-08-18T01:09:19;7.03;;;4.93;;
61458;SDS011;47324;48.760;9.156;2022-08-18T01:11:46;5.82;;;4.85;;
61458;SDS011;47324;48.760;9.156;2022-08-18T01:14:12;5.43;;;4.20;;
61458;SDS011;47324;48.760;9.156;2022-08-18T01:16:41;5.35;;;4.75;;
61458;SDS011;47324;48.760;9.156;2022-08-18T01:19:26;6.82;;;4.45;;
61458;SDS011;47324;48.760;9.156;2022-08-18T01:25:15;6.95;;;4.72;;
61458;SDS011;47324;48.760;9.156;2022-08-18T01:28:02;5.90;;;4.57;;
61458;SDS011;47324;48.760;9.156;2022-08-18T01:30:29;6.60;;;5.07;;
61458;SDS011;47324;48.760;9.156;2022-08-18T01:32:56;6.60;;;4.70;;
61458;SDS011;47324;48.760;9.156;2022-08-18T01:35:23;5.43;;;4.40;;
61458;SDS011;47324;48.760;9.156;2022-08-18T01:37:51;5.63;;;4.60;;
61458;SDS011;47324;48.760;9.156;2022-08-18T01:40:21;4.80;;;3.95;;
61458;SDS011;47324;48.760;9.156;2022-08-18T01:42:48;6.68;;;5.28;;
61458;SDS011;47324;48.760;9.156;2022-08-18T01:45:16;7.18;;;4.80;;
61458;SDS011;47324;48.760;9.156;2022-08-18T01:47:42;5.70;;;4.30;;
61458;SDS011;47324;48.760;9.156;2022-08-18T01:50:10;5.65;;;5.00;;
61458;SDS011;47324;48.760;9.156;2022-08-18T01:52:36;5.53;;;4.38;;
61458;SDS011;47324;48.760;9.156;2022-08-18T01:55:03;5.68;;;4.78;;
61458;SDS011;47324;48.760;9.156;2022-08-18T01:57:30;6.13;;;4.35;;
61458;SDS011;47324;48.760;9.156;2022-08-18T01:59:56;5.88;;;5.13;;
61458;SDS011;47324;48.760;9.156;2022-08-18T02:02:26;6.32;;;4.85;;
61458;SDS011;47324;48.760;9.156;2022-08-18T02:04:53;8.10;;;4.43;;
61458;SDS011;47324;48.760;9.156;2022-08-18T02:07:24;6.97;;;5.03;;
61458;SDS011;47324;48.760;9.156;2022-08-18T02:09:50;6.10;;;4.70;;
61458;SDS011;47324;48.760;9.156;2022-08-18T02:12:16;7.03;;;4.97;;
61458;SDS011;47324;48.760;9.156;2022-08-18T02:14:42;7.93;;;5.70;;
61458;SDS011;47324;48.760;9.156;2022-08-18T02:17:09;6.60;;;4.13;;
61458;SDS011;47324;48.760;9.156;2022-08-18T02:19:39;6.20;;;4.75;;
61458;SDS011;47324;48.760;9.156;2022-08-18T02:22:07;6.57;;;5.13;;
61458;SDS011;47324;48.760;9.156;2022-08-18T02:24:34;5.82;;;4.63;;
61458;SDS011;47324;48.760;9.156;2022-08-18T02:27:01;6.45;;;5.25;;
61458;SDS011;47324;48.760;9.156;2022-08-18T02:29:27;6.10;;;4.57;;
61458;SDS011;47324;48.760;9.156;2022-08-18T02:31:53;5.93;;;4.60;;
61458;SDS011;47324;48.760;9.156;2022-08-18T02:34:19;5.38;;;4.53;;
61458;SDS011;47324;48.760;9.156;2022-08-18T02:36:45;6.63;;;4.57;;
61458;SDS011;47324;48.760;9.156;2022-08-18T02:39:11;5.65;;;4.30;;
61458;SDS011;47324;48.760;9.156;2022-08-18T02:41:37;5.90;;;4.95;;
61458;SDS011;47324;48.760;9.156;2022-08-18T02:44:05;5.55;;;4.55;;
61458;SDS011;47324;48.760;9.156;2022-08-18T02:46:31;6.78;;;4.93;;
61458;SDS011;47324;48.760;9.156;2022-08-18T02:48:58;7.00;;;5.10;;
61458;SDS011;47324;48.760;9.156;2022-08-18T02:51:24;6.82;;;5.25;;
61458;SDS011;47324;48.760;9.156;2022-08-18T02:53:50;5.10;;;4.40;;
61458;SDS011;47324;48.760;9.156;2022-08-18T02:56:18;6.50;;;4.97;;
61458;SDS011;47324;48.760;9.156;2022-08-18T02:58:50;6.82;;;5.38;;
61458;SDS011;47324;48.760;9.156;2022-08-18T03:01:20;5.47;;;4.22;;
61458;SDS011;47324;48.760;9.156;2022-08-18T03:03:47;7.43;;;4.78;;
61458;SDS011;47324;48.760;9.156;2022-08-18T03:06:15;5.60;;;5.00;;
61458;SDS011;47324;48.760;9.156;2022-08-18T03:08:42;6.28;;;5.28;;
61458;SDS011;47324;48.760;9.156;2022-08-18T03:11:16;6.97;;;5.15;;
61458;SDS011;47324;48.760;9.156;2022-08-18T03:13:43;7.10;;;5.13;;
61458;SDS011;47324;48.760;9.156;2022-08-18T03:16:10;5.65;;;4.95;;
61458;SDS011;47324;48.760;9.156;2022-08-18T03:18:36;5.80;;;4.45;;
61458;SDS011;47324;48.760;9.156;2022-08-18T03:21:06;5.75;;;4.28;;
61458;SDS011;47324;48.760;9.156;2022-08-18T03:23:37;6.75;;;5.15;;
61458;SDS011;47324;48.760;9.156;2022-08-18T03:26:07;5.97;;;5.10;;
61458;SDS011;47324;48.760;9.156;2022-08-18T03:28:36;5.80;;;4.63;;
61458;SDS011;47324;48.760;9.156;2022-08-18T03:31:03;8.50;;;5.05;;
61458;SDS011;47324;48.760;9.156;2022-08-18T03:33:29;6.50;;;4.45;;
61458;SDS011;47324;48.760;9.156;2022-08-18T03:35:55;6.25;;;5.40;;
61458;SDS011;47324;48.760;9.156;2022-08-18T03:38:21;7.05;;;5.25;;
61458;SDS011;47324;48.760;9.156;2022-08-18T03:40:51;6.13;;;5.18;;
61458;SDS011;47324;48.760;9.156;2022-08-18T03:43:17;6.80;;;4.70;;
61458;SDS011;47324;48.760;9.156;2022-08-18T03:45:43;7.22;;;5.30;;
61458;SDS011;47324;48.760;9.156;2022-08-18T03:48:09;7.03;;;5.00;;
61458;SDS011;47324;48.760;9.156;2022-08-18T03:50:35;7.93;;;6.00;;
61458;SDS011;47324;48.760;9.156;2022-08-18T03:53:02;6.75;;;5.00;;
61458;SDS011;47324;48.760;9.156;2022-08-18T03:55:30;6.40;;;5.18;;
61458;SDS011;47324;48.760;9.156;2022-08-18T03:57:57;5.95;;;4.57;;
61458;SDS011;47324;48.760;9.156;2022-08-18T04:00:28;8.93;;;5.70;;
61458;SDS011;47324;48.760;9.156;2022-08-18T04:02:55;5.72;;;4.60;;
61458;SDS011;47324;48.760;9.156;2022-08-18T04:05:21;7.30;;;5.55;;
61458;SDS011;47324;48.760;9.156;2022-08-18T04:07:47;6.78;;;5.00;;
61458;SDS011;47324;48.760;9.156;2022-08-18T04:10:13;7.38;;;5.15;;
61458;SDS011;47324;48.760;9.156;2022-08-18T04:12:40;6.53;;;4.90;;
61458;SDS011;47324;48.760;9.156;2022-08-18T04:15:07;6.68;;;5.20;;
61458;SDS011;47324;48.760;9.156;2022-08-18T04:17:34;9.25;;;5.50;;
61458;SDS011;47324;48.760;9.156;2022-08-18T04:20:00;7.78;;;5.25;;
61458;SDS011;47324;48.760;9.156;2022-08-18T04:22:26;5.22;;;4.30;;
61458;SDS011;47324;48.760;9.156;2022-08-18T04:24:52;6.47;;;5.38;;
61458;SDS011;47324;48.760;9.156;2022-08-18T04:27:19;6.88;;;5.53;;
61458;SDS011;47324;48.760;9.156;2022-08-18T04:29:46;7.03;;;5.18;;
61458;SDS011;47324;48.760;9.156;2022-08-18T04:32:12;6.88;;;5.38;;
61458;SDS011;47324;48.760;9.156;2022-08-18T04:34:38;7.13;;;6.15;;
61458;SDS011;47324;48.760;9.156;2022-08-18T04:37:06;6.43;;;5.05;;
61458;SDS011;47324;48.760;9.156;2022-08-18T04:39:33;7.88;;;5.32;;
61458;SDS011;47324;48.760;9.156;2022-08-18T04:41:59;9.52;;;5.72;;
61458;SDS011;47324;48.760;9.156;2022-08-18T04:44:28;6.57;;;5.47;;
61458;SDS011;47324;48.760;9.156;2022-08-18T04:46:54;8.65;;;5.75;;
61458;SDS011;47324;48.760;9.156;2022-08-18T04:49:22;6.85;;;5.57;;
61458;SDS011;47324;48.760;9.156;2022-08-18T04:51:50;7.30;;;6.05;;
61458;SDS011;47324;48.760;9.156;2022-08-18T04:54:36;7.22;;;5.25;;
61458;SDS011;47324;48.760;9.156;2022-08-18T04:57:10;7.00;;;5.63;;
61458;SDS011;47324;48.760;9.156;2022-08-18T04:59:39;7.60;;;5.35;;
61458;SDS011;47324;48.760;9.156;2022-08-18T05:02:07;6.05;;;4.97;;
61458;SDS011;47324;48.760;9.156;2022-08-18T05:04:37;6.78;;;5.32;;
61458;SDS011;47324;48.760;9.156;2022-08-18T05:07:06;6.95;;;5.47;;
61458;SDS011;47324;48.760;9.156;2022-08-18T05:09:33;7.55;;;5.38;;
61458;SDS011;47324;48.760;9.156;2022-08-18T05:12:00;7.63;;;5.50;;
61458;SDS011;47324;48.760;9.156;2022-08-18T05:14:28;7.38;;;5.90;;
61458;SDS011;47324;48.760;9.156;2022-08-18T05:16:57;6.95;;;5.47;;
61458;SDS011;47324;48.760;9.156;2022-08-18T05:19:24;7.20;;;5.63;;
61458;SDS011;47324;48.760;9.156;2022-08-18T05:21:51;6.25;;;5.18;;
61458;SDS011;47324;48.760;9.156;2022-08-18T05:24:19;6.78;;;5.32;;
61458;SDS011;47324;48.760;9.156;2022-08-18T05:26:49;6.65;;;5.35;;
61458;SDS011;47324;48.760;9.156;2022-08-18T05:29:16;8.57;;;5.50;;
61458;SDS011;47324;48.760;9.156;2022-08-18T05:31:42;7.45;;;5.40;;
61458;SDS011;47324;48.760;9.156;2022-08-18T05:34:08;7.50;;;5.60;;
61458;SDS011;47324;48.760;9.156;2022-08-18T05:41:51;8.40;;;5.47;;
61458;SDS011;47324;48.760;9.156;2022-08-18T05:44:24;7.40;;;5.78;;
61458;SDS011;47324;48.760;9.156;2022-08-18T05:46:54;7.95;;;6.28;;
61458;SDS011;47324;48.760;9.156;2022-08-18T05:49:23;7.65;;;5.63;;
61458;SDS011;47324;48.760;9.156;2022-08-18T05:51:54;6.32;;;5.10;;
61458;SDS011;47324;48.760;9.156;2022-08-18T05:54:22;7.18;;;5.00;;
61458;SDS011;47324;48.760;9.156;2022-08-18T05:57:10;7.07;;;5.47;;
61458;SDS011;47324;48.760;9.156;2022-08-18T05:59:40;7.30;;;6.00;;
61458;SDS011;47324;48.760;9.156;2022-08-18T06:04:40;7.10;;;5.90;;
61458;SDS011;47324;48.760;9.156;2022-08-18T06:07:17;6.13;;;5.35;;
61458;SDS011;47324;48.760;9.156;2022-08-18T06:09:51;6.50;;;5.55;;
61458;SDS011;47324;48.760;9.156;2022-08-18T06:14:53;6.47;;;4.97;;
61458;SDS011;47324;48.760;9.156;2022-08-18T06:17:30;6.95;;;5.68;;
61458;SDS011;47324;48.760;9.156;2022-08-18T06:20:15;8.13;;;6.05;;
61458;SDS011;47324;48.760;9.156;2022-08-18T06:23:28;7.40;;;6.30;;
61458;SDS011;47324;48.760;9.156;2022-08-18T06:28:30;7.20;;;5.93;;
61458;SDS011;47324;48.760;9.156;2022-08-18T06:31:14;6.88;;;5.15;;
61458;SDS011;47324;48.760;9.156;2022-08-18T06:36:36;8.35;;;5.57;;
61458;SDS011;47324;48.760;9.156;2022-08-18T06:39:20;7.50;;;5.88;;
61458;SDS011;47324;48.760;9.156;2022-08-18T06:41:51;7.85;;;5.82;;
61458;SDS011;47324;48.760;9.156;2022-08-18T06:44:32;7.32;;;6.22;;
61458;SDS011;47324;48.760;9.156;2022-08-18T06:52:24;8.95;;;5.82;;
61458;SDS011;47324;48.760;9.156;2022-08-18T06:54:51;6.20;;;5.47;;
61458;SDS011;47324;48.760;9.156;2022-08-18T06:57:23;9.27;;;5.63;;
61458;SDS011;47324;48.760;9.156;2022-08-18T07:00:22;8.00;;;4.85;;
61458;SDS011;47324;48.760;9.156;2022-08-18T07:02:53;6.57;;;5.15;;
61458;SDS011;47324;48.760;9.156;2022-08-18T07:05:26;6.95;;;4.97;;
61458;SDS011;47324;48.760;9.156;2022-08-18T07:08:16;5.97;;;4.95;;
61458;SDS011;47324;48.760;9.156;2022-08-18T07:10:50;5.68;;;4.60;;
61458;SDS011;47324;48.760;9.156;2022-08-18T07:13:22;8.63;;;5.35;;
61458;SDS011;47324;48.760;9.156;2022-08-18T07:16:13;8.30;;;5.53;;
61458;SDS011;47324;48.760;9.156;2022-08-18T07:18:45;6.15;;;4.95;;
61458;SDS011;47324;48.760;9.156;2022-08-18T07:21:22;6.28;;;5.07;;
61458;SDS011;47324;48.760;9.156;2022-08-18T07:24:07;5.35;;;4.57;;
61458;SDS011;47324;48.760;9.156;2022-08-18T07:29:24;5.93;;;5.18;;
61458;SDS011;47324;48.760;9.156;2022-08-18T07:31:51;7.65;;;5.97;;
61458;SDS011;47324;48.760;9.156;2022-08-18T07:37:03;5.40;;;4.40;;
61458;SDS011;47324;48.760;9.156;2022-08-18T07:39:35;6.63;;;4.90;;
61458;SDS011;47324;48.760;9.156;2022-08-18T07:42:15;5.85;;;4.93;;
61458;SDS011;47324;48.760;9.156;2022-08-18T07:44:45;6.38;;;4.50;;
61458;SDS011;47324;48.760;9.156;2022-08-18T07:47:33;6.45;;;4.80;;
61458;SDS011;47324;48.760;9.156;2022-08-18T07:50:12;6.22;;;5.35;;
61458;SDS011;47324;48.760;9.156;2022-08-18T07:52:48;6.45;;;4.85;;
61458;SDS011;47324;48.760;9.156;2022-08-18T07:55:27;7.32;;;5.05;;
61458;SDS011;47324;48.760;9.156;2022-08-18T07:58:15;7.60;;;4.97;;
61458;SDS011;47324;48.760;9.156;2022-08-18T08:06:18;5.60;;;4.63;;
61458;SDS011;47324;48.760;9.156;2022-08-18T08:16:49;6.65;;;5.15;;
61458;SDS011;47324;48.760;9.156;2022-08-18T08:19:28;7.18;;;5.50;;
61458;SDS011;47324;48.760;9.156;2022-08-18T08:22:11;5.38;;;4.15;;
61458;SDS011;47324;48.760;9.156;2022-08-18T08:27:23;6.40;;;5.18;;
61458;SDS011;47324;48.760;9.156;2022-08-18T08:30:13;7.38;;;5.20;;
61458;SDS011;47324;48.760;9.156;2022-08-18T08:35:25;5.65;;;4.88;;
61458;SDS011;47324;48.760;9.156;2022-08-18T08:38:01;9.68;;;5.00;;
61458;SDS011;47324;48.760;9.156;2022-08-18T08:40:37;6.93;;;5.65;;
61458;SDS011;47324;48.760;9.156;2022-08-18T08:43:10;6.65;;;5.80;;
61458;SDS011;47324;48.760;9.156;2022-08-18T08:45:44;7.28;;;5.13;;
61458;SDS011;47324;48.760;9.156;2022-08-18T08:50:41;6.95;;;5.45;;
61458;SDS011;47324;48.760;9.156;2022-08-18T08:55:47;6.93;;;5.82;;
61458;SDS011;47324;48.760;9.156;2022-08-18T08:58:18;8.32;;;5.97;;
61458;SDS011;47324;48.760;9.156;2022-08-18T09:00:48;6.57;;;5.28;;
61458;SDS011;47324;48.760;9.156;2022-08-18T09:03:20;8.32;;;5.25;;
61458;SDS011;47324;48.760;9.156;2022-08-18T09:05:50;7.57;;;5.80;;
61458;SDS011;47324;48.760;9.156;2022-08-18T09:24:57;6.03;;;5.30;;
61458;SDS011;47324;48.760;9.156;2022-08-18T09:30:03;7.22;;;5.97;;
61458;SDS011;47324;48.760;9.156;2022-08-18T09:32:39;9.10;;;6.80;;
61458;SDS011;47324;48.760;9.156;2022-08-18T09:35:35;8.82;;;5.95;;
61458;SDS011;47324;48.760;9.156;2022-08-18T09:38:09;9.18;;;6.18;;
61458;SDS011;47324;48.760;9.156;2022-08-18T09:41:04;9.15;;;6.47;;
61458;SDS011;47324;48.760;9.156;2022-08-18T09:49:50;9.00;;;7.15;;
61458;SDS011;47324;48.760;9.156;2022-08-18T09:57:40;7.38;;;6.05;;
61458;SDS011;47324;48.760;9.156;2022-08-18T10:07:42;7.53;;;5.85;;
61458;SDS011;47324;48.760;9.156;2022-08-18T10:20:44;7.18;;;6.47;;
61458;SDS011;47324;48.760;9.156;2022-08-18T10:31:28;7.75;;;6.95;;
61458;SDS011;47324;48.760;9.156;2022-08-18T10:34:00;7.70;;;6.80;;
61458;SDS011;47324;48.760;9.156;2022-08-18T10:36:32;7.63;;;6.40;;
61458;SDS011;47324;48.760;9.156;2022-08-18T10:39:13;10.30;;;7.28;;
61458;SDS011;47324;48.760;9.156;2022-08-18T10:41:48;9.45;;;7.50;;
61458;SDS011;47324;48.760;9.156;2022-08-18T10:44:17;8.38;;;6.97;;
61458;SDS011;47324;48.760;9.156;2022-08-18T10:46:47;9.20;;;7.05;;
61458;SDS011;47324;48.760;9.156;2022-08-18T10:51:50;8.68;;;7.50;;
61458;SDS011;47324;48.760;9.156;2022-08-18T10:59:51;9.02;;;7.45;;
61458;SDS011;47324;48.760;9.156;2022-08-18T11:05:03;8.30;;;6.47;;
61458;SDS011;47324;48.760;9.156;2022-08-18T11:07:31;8.73;;;6.88;;
61458;SDS011;47324;48.760;9.156;2022-08-18T11:09:57;8.60;;;6.53;;
61458;SDS011;47324;48.760;9.156;2022-08-18T11:12:51;7.38;;;6.15;;
61458;SDS011;47324;48.760;9.156;2022-08-18T11:20:36;10.23;;;7.78;;
61458;SDS011;47324;48.760;9.156;2022-08-18T11:23:04;7.22;;;6.53;;
61458;SDS011;47324;48.760;9.156;2022-08-18T11:25:37;11.27;;;8.70;;
61458;SDS011;47324;48.760;9.156;2022-08-18T11:28:13;10.07;;;7.47;;
61458;SDS011;47324;48.760;9.156;2022-08-18T11:30:49;9.57;;;7.30;;
61458;SDS011;47324;48.760;9.156;2022-08-18T11:33:17;9.23;;;7.22;;
61458;SDS011;47324;48.760;9.156;2022-08-18T11:35:48;7.50;;;6.80;;
61458;SDS011;47324;48.760;9.156;2022-08-18T11:38:17;9.85;;;7.53;;
61458;SDS011;47324;48.760;9.156;2022-08-18T11:40:46;9.45;;;8.25;;
61458;SDS011;47324;48.760;9.156;2022-08-18T11:46:08;14.40;;;8.70;;
61458;SDS011;47324;48.760;9.156;2022-08-18T11:48:57;9.88;;;7.68;;
61458;SDS011;47324;48.760;9.156;2022-08-18T11:51:29;9.38;;;7.60;;
61458;SDS011;47324;48.760;9.156;2022-08-18T11:54:00;9.52;;;7.47;;
61458;SDS011;47324;48.760;9.156;2022-08-18T11:56:30;9.48;;;8.45;;
61458;SDS011;47324;48.760;9.156;2022-08-18T11:58:58;8.57;;;7.68;;
61458;SDS011;47324;48.760;9.156;2022-08-18T12:03:59;9.40;;;8.43;;
61458;SDS011;47324;48.760;9.156;2022-08-18T12:06:38;9.73;;;7.80;;
61458;SDS011;47324;48.760;9.156;2022-08-18T12:09:11;8.55;;;7.53;;
61458;SDS011;47324;48.760;9.156;2022-08-18T12:14:18;9.98;;;7.70;;
61458;SDS011;47324;48.760;9.156;2022-08-18T12:16:46;8.32;;;7.43;;
61458;SDS011;47324;48.760;9.156;2022-08-18T12:19:12;8.48;;;7.55;;
61458;SDS011;47324;48.760;9.156;2022-08-18T12:21:41;8.75;;;7.18;;
61458;SDS011;47324;48.760;9.156;2022-08-18T12:24:10;8.00;;;6.43;;
61458;SDS011;47324;48.760;9.156;2022-08-18T12:26:43;9.63;;;8.65;;
61458;SDS011;47324;48.760;9.156;2022-08-18T12:29:09;10.60;;;7.53;;
61458;SDS011;47324;48.760;9.156;2022-08-18T12:31:35;8.73;;;7.85;;
61458;SDS011;47324;48.760;9.156;2022-08-18T12:34:01;9.75;;;8.73;;
61458;SDS011;47324;48.760;9.156;2022-08-18T12:36:27;9.68;;;7.95;;
61458;SDS011;47324;48.760;9.156;2022-08-18T12:38:54;7.88;;;6.93;;
61458;SDS011;47324;48.760;9.156;2022-08-18T12:41:20;8.65;;;7.10;;
61458;SDS011;47324;48.760;9.156;2022-08-18T12:43:46;9.55;;;7.75;;
61458;SDS011;47324;48.760;9.156;2022-08-18T12:46:12;8.30;;;7.25;;
61458;SDS011;47324;48.760;9.156;2022-08-18T12:48:38;8.13;;;6.63;;
61458;SDS011;47324;48.760;9.156;2022-08-18T12:51:05;8.65;;;7.65;;
61458;SDS011;47324;48.760;9.156;2022-08-18T12:53:31;8.80;;;7.53;;
61458;SDS011;47324;48.760;9.156;2022-08-18T12:55:57;7.80;;;6.20;;
61458;SDS011;47324;48.760;9.156;2022-08-18T12:58:24;9.55;;;6.68;;
61458;SDS011;47324;48.760;9.156;2022-08-18T13:00:51;7.90;;;6.57;;
61458;SDS011;47324;48.760;9.156;2022-08-18T13:03:17;6.88;;;6.10;;
61458;SDS011;47324;48.760;9.156;2022-08-18T13:05:44;7.43;;;6.70;;
61458;SDS011;47324;48.760;9.156;2022-08-18T13:08:15;7.40;;;5.95;;
61458;SDS011;47324;48.760;9.156;2022-08-18T13:10:43;8.80;;;6.97;;
61458;SDS011;47324;48.760;9.156;2022-08-18T13:13:09;7.95;;;7.03;;
61458;SDS011;47324;48.760;9.156;2022-08-18T13:15:35;8.82;;;6.35;;
61458;SDS011;47324;48.760;9.156;2022-08-18T13:18:01;6.78;;;5.75;;
61458;SDS011;47324;48.760;9.156;2022-08-18T13:20:27;10.15;;;7.28;;
61458;SDS011;47324;48.760;9.156;2022-08-18T13:22:53;9.35;;;7.38;;
61458;SDS011;47324;48.760;9.156;2022-08-18T13:25:19;7.90;;;6.53;;
61458;SDS011;47324;48.760;9.156;2022-08-18T13:27:45;8.52;;;7.00;;
61458;SDS011;47324;48.760;9.156;2022-08-18T13:30:13;7.63;;;6.55;;
61458;SDS011;47324;48.760;9.156;2022-08-18T13:32:40;11.35;;;6.40;;
61458;SDS011;47324;48.760;9.156;2022-08-18T13:35:07;8.40;;;7.43;;
61458;SDS011;47324;48.760;9.156;2022-08-18T13:37:34;8.52;;;6.30;;
61458;SDS011;47324;48.760;9.156;2022-08-18T13:40:00;8.05;;;7.30;;
61458;SDS011;47324;48.760;9.156;2022-08-18T13:42:26;9.48;;;6.57;;
61458;SDS011;47324;48.760;9.156;2022-08-18T13:44:58;8.98;;;6.10;;
61458;SDS011;47324;48.760;9.156;2022-08-18T13:47:25;9.90;;;6.55;;
61458;SDS011;47324;48.760;9.156;2022-08-18T13:49:56;9.20;;;7.65;;
61458;SDS011;47324;48.760;9.156;2022-08-18T13:52:24;6.43;;;5.82;;
61458;SDS011;47324;48.760;9.156;2022-08-18T13:54:50;7.72;;;6.78;;
61458;SDS011;47324;48.760;9.156;2022-08-18T13:57:17;8.57;;;7.05;;
61458;SDS011;47324;48.760;9.156;2022-08-18T13:59:44;10.45;;;7.25;;
61458;SDS011;47324;48.760;9.156;2022-08-18T14:02:10;9.68;;;7.20;;
61458;SDS011;47324;48.760;9.156;2022-08-18T14:04:36;7.22;;;6.53;;
61458;SDS011;47324;48.760;9.156;2022-08-18T14:07:04;7.30;;;5.70;;
61458;SDS011;47324;48.760;9.156;2022-08-18T14:09:30;8.02;;;6.13;;
61458;SDS011;47324;48.760;9.156;2022-08-18T14:11:57;9.02;;;6.45;;
61458;SDS011;47324;48.760;9.156;2022-08-18T14:14:23;8.40;;;6.75;;
61458;SDS011;47324;48.760;9.156;2022-08-18T14:16:49;11.45;;;8.27;;
61458;SDS011;47324;48.760;9.156;2022-08-18T14:19:15;9.73;;;7.18;;
61458;SDS011;47324;48.760;9.156;2022-08-18T14:22:00;9.93;;;7.07;;
61458;SDS011;47324;48.760;9.156;2022-08-18T14:24:44;7.18;;;5.72;;
61458;SDS011;47324;48.760;9.156;2022-08-18T14:27:29;11.63;;;6.47;;
61458;SDS011;47324;48.760;9.156;2022-08-18T14:30:06;8.00;;;6.63;;
61458;SDS011;47324;48.760;9.156;2022-08-18T14:32:33;7.90;;;5.80;;
61458;SDS011;47324;48.760;9.156;2022-08-18T14:35:00;7.90;;;5.75;;
61458;SDS011;47324;48.760;9.156;2022-08-18T14:37:28;6.18;;;5.57;;
61458;SDS011;47324;48.760;9.156;2022-08-18T14:39:55;7.70;;;6.25;;
61458;SDS011;47324;48.760;9.156;2022-08-18T14:42:21;8.80;;;5.95;;
61458;SDS011;47324;48.760;9.156;2022-08-18T14:44:47;6.93;;;6.18;;
61458;SDS011;47324;48.760;9.156;2022-08-18T14:47:13;7.75;;;5.93;;
61458;SDS011;47324;48.760;9.156;2022-08-18T14:49:40;8.13;;;5.68;;
61458;SDS011;47324;48.760;9.156;2022-08-18T14:52:06;7.13;;;5.40;;
61458;SDS011;47324;48.760;9.156;2022-08-18T14:54:32;7.57;;;6.10;;
61458;SDS011;47324;48.760;9.156;2022-08-18T14:56:59;7.55;;;5.85;;
61458;SDS011;47324;48.760;9.156;2022-08-18T14:59:30;5.93;;;5.10;;
61458;SDS011;47324;48.760;9.156;2022-08-18T15:01:57;6.72;;;6.13;;
61458;SDS011;47324;48.760;9.156;2022-08-18T15:04:23;6.57;;;5.78;;
61458;SDS011;47324;48.760;9.156;2022-08-18T15:06:52;6.55;;;5.55;;
61458;SDS011;47324;48.760;9.156;2022-08-18T15:09:18;8.93;;;6.18;;
61458;SDS011;47324;48.760;9.156;2022-08-18T15:11:44;9.10;;;6.90;;
61458;SDS011;47324;48.760;9.156;2022-08-18T15:14:10;8.57;;;6.22;;
61458;SDS011;47324;48.760;9.156;2022-08-18T15:16:36;7.38;;;6.28;;
61458;SDS011;47324;48.760;9.156;2022-08-18T15:19:03;6.40;;;5.45;;
61458;SDS011;47324;48.760;9.156;2022-08-18T15:21:29;8.13;;;5.60;;
61458;SDS011;47324;48.760;9.156;2022-08-18T15:24:16;9.60;;;6.00;;
61458;SDS011;47324;48.760;9.156;2022-08-18T15:27:00;7.05;;;5.88;;
61458;SDS011;47324;48.760;9.156;2022-08-18T15:29:29;6.82;;;5.25;;
61458;SDS011;47324;48.760;9.156;2022-08-18T15:31:56;9.45;;;7.47;;
61458;SDS011;47324;48.760;9.156;2022-08-18T15:34:23;10.80;;;7.75;;
61458;SDS011;47324;48.760;9.156;2022-08-18T15:36:49;8.70;;;6.40;;
61458;SDS011;47324;48.760;9.156;2022-08-18T15:39:15;8.65;;;5.97;;
61458;SDS011;47324;48.760;9.156;2022-08-18T15:41:43;6.93;;;5.47;;
61458;SDS011;47324;48.760;9.156;2022-08-18T15:44:11;7.30;;;6.13;;
61458;SDS011;47324;48.760;9.156;2022-08-18T15:46:38;8.40;;;5.75;;
61458;SDS011;47324;48.760;9.156;2022-08-18T15:49:05;7.78;;;6.22;;
61458;SDS011;47324;48.760;9.156;2022-08-18T15:51:32;6.65;;;5.90;;
61458;SDS011;47324;48.760;9.156;2022-08-18T15:54:00;8.40;;;6.15;;
61458;SDS011;47324;48.760;9.156;2022-08-18T15:56:28;10.25;;;7.10;;
61458;SDS011;47324;48.760;9.156;2022-08-18T15:58:54;8.50;;;6.38;;
61458;SDS011;47324;48.760;9.156;2022-08-18T16:01:21;7.45;;;5.93;;
61458;SDS011;47324;48.760;9.156;2022-08-18T16:03:48;8.23;;;6.05;;
61458;SDS011;47324;48.760;9.156;2022-08-18T16:06:19;6.53;;;5.78;;
61458;SDS011;47324;48.760;9.156;2022-08-18T16:08:49;7.40;;;5.88;;
61458;SDS011;47324;48.760;9.156;2022-08-18T16:11:16;6.63;;;5.80;;
61458;SDS011;47324;48.760;9.156;2022-08-18T16:13:43;7.10;;;5.80;;
61458;SDS011;47324;48.760;9.156;2022-08-18T16:16:11;5.90;;;4.95;;
61458;SDS011;47324;48.760;9.156;2022-08-18T16:18:41;8.95;;;6.30;;
61458;SDS011;47324;48.760;9.156;2022-08-18T16:21:11;6.18;;;5.28;;
61458;SDS011;47324;48.760;9.156;2022-08-18T16:23:40;6.82;;;6.13;;
61458;SDS011;47324;48.760;9.156;2022-08-18T16:26:12;8.30;;;5.45;;
61458;SDS011;47324;48.760;9.156;2022-08-18T16:28:41;5.97;;;5.35;;
61458;SDS011;47324;48.760;9.156;2022-08-18T16:31:10;6.85;;;5.43;;
61458;SDS011;47324;48.760;9.156;2022-08-18T16:33:40;16.38;;;8.65;;
61458;SDS011;47324;48.760;9.156;2022-08-18T16:36:08;12.27;;;7.68;;
61458;SDS011;47324;48.760;9.156;2022-08-18T16:38:36;13.10;;;8.55;;
61458;SDS011;47324;48.760;9.156;2022-08-18T16:41:06;6.82;;;5.82;;
61458;SDS011;47324;48.760;9.156;2022-08-18T16:43:37;7.60;;;6.38;;
61458;SDS011;47324;48.760;9.156;2022-08-18T16:46:13;7.75;;;5.85;;
61458;SDS011;47324;48.760;9.156;2022-08-18T16:48:46;10.70;;;6.13;;
61458;SDS011;47324;48.760;9.156;2022-08-18T16:51:13;8.77;;;6.75;;
61458;SDS011;47324;48.760;9.156;2022-08-18T16:53:41;8.82;;;6.47;;
61458;SDS011;47324;48.760;9.156;2022-08-18T16:56:11;7.05;;;5.65;;
61458;SDS011;47324;48.760;9.156;2022-08-18T16:58:38;9.40;;;5.85;;
61458;SDS011;47324;48.760;9.156;2022-08-18T17:01:23;8.90;;;6.47;;
61458;SDS011;47324;48.760;9.156;2022-08-18T17:04:08;8.15;;;6.78;;
61458;SDS011;47324;48.760;9.156;2022-08-18T17:06:37;8.18;;;7.10;;
61458;SDS011;47324;48.760;9.156;2022-08-18T17:09:03;9.57;;;5.97;;
61458;SDS011;47324;48.760;9.156;2022-08-18T17:11:30;7.57;;;6.78;;
61458;SDS011;47324;48.760;9.156;2022-08-18T17:13:57;8.55;;;6.50;;
61458;SDS011;47324;48.760;9.156;2022-08-18T17:16:25;9.52;;;6.85;;
61458;SDS011;47324;48.760;9.156;2022-08-18T17:18:52;8.50;;;6.22;;
61458;SDS011;47324;48.760;9.156;2022-08-18T17:21:21;8.27;;;6.57;;